Delaware County Johnson Field Muncie US
ICAO: KMIE
IATA: MIE
Category: Medium
Scheduled Services: No

Elevation: 937 ft
TransAlt. 18000 ft.

Airport Communications:
ASOS:114.4
ATIS:133.25
INDIANAPOLIS CNTR:120.65
CTAF:120.1
MUNCIE GND:121.9
TERRE HAUTE RDO:114.4
MUNCIE TWR:120.1
UNICOM:122.95

KMIE Zoom In..

If you have problems with the map follow the link
https://www.worldairports.se/pages/airport.php?
ICAO=KMIE

Runways:

(A) RW 02 length 5198 ft width 100 ft
---- / hdg 25

(B) RW 14 length 6500 ft width 150 ft
---- / hdg 139

(C) RW 20 length 5198 ft width 100 ft
---- / hdg 205

(D) RW 32 length 6500 ft width 150 ft
ILS 109.10 / hdg 319

Location; KMIE
Day. 18 / Time. 06.53 Zulu
* Altimeter: 30.46
* Temperature: 02° c. 35.6°f.
* Wind from: 000° Speed 00 kn.
Dewpoint: -02° c.
Visibility: 10 Statute Miles.
Clouds: Clear (automated report).

KMIE 180653Z AUTO 00000KT 10SM CLR 02/M02 A3046 RMK AO2 SLP314 T00171017


Wind - Calm.

 
 
jpsmedia.com for Web Design worldairports.se 2018   terms of use